Time;durP1;ratioP1;P1;durP2;ratioP2;P2;SDS_P1;SDS_P2;PMS_P1;PMS_P2;Temp;Humidity;BMP_temperature;BMP_pressure;BME280_temperature;BME280_humidity;BME280_pressure;Samples;Min_cycle;Max_cycle;Signal;HPM_P1;HPM_P2
2022/05/16 00:02:19;;;;;;;1.73;1.60;;;;;;;;;;5035086;28;20394;-88
2022/05/16 00:04:49;;;;;;;3.30;1.90;;;;;;;;;;5034897;28;20386;-88
2022/05/16 00:07:15;;;;;;;3.03;1.63;;;;;;;;;;5035062;28;20466;-88
2022/05/16 00:09:41;;;;;;;2.00;1.60;;;;;;;;;;5035098;28;20414;-88
2022/05/16 00:12:08;;;;;;;2.27;1.80;;;;;;;;;;5017506;28;20907;-88
2022/05/16 00:14:35;;;;;;;2.27;1.97;;;;;;;;;;5034733;28;20403;-89
2022/05/16 00:17:01;;;;;;;1.90;1.80;;;;;;;;;;5034625;28;20780;-88
2022/05/16 00:19:27;;;;;;;2.67;2.10;;;;;;;;;;5035090;28;20769;-88
2022/05/16 00:21:53;;;;;;;2.50;2.03;;;;;;;;;;5034928;28;20470;-88
2022/05/16 00:24:24;;;;;;;3.00;2.13;;;;;;;;;;5034463;28;20394;-88
2022/05/16 00:26:50;;;;;;;2.20;1.70;;;;;;;;;;5034668;28;20378;-88
2022/05/16 00:29:16;;;;;;;2.88;2.17;;;;;;;;;;5034714;28;20415;-88
2022/05/16 00:31:42;;;;;;;2.30;1.92;;;;;;;;;;5034952;28;20465;-88
2022/05/16 00:34:08;;;;;;;2.10;1.90;;;;;;;;;;5034060;28;20384;-88
2022/05/16 00:36:33;;;;;;;2.90;2.05;;;;;;;;;;5034390;28;20799;-88
2022/05/16 00:38:59;;;;;;;2.20;2.00;;;;;;;;;;5034537;28;20390;-89
2022/05/16 00:41:26;;;;;;;2.13;1.92;;;;;;;;;;5034300;28;20891;-88
2022/05/16 00:43:57;;;;;;;2.10;1.90;;;;;;;;;;5034011;28;20469;-88
2022/05/16 00:46:24;;;;;;;2.80;2.00;;;;;;;;;;5049462;28;20388;-89
2022/05/16 00:48:50;;;;;;;2.35;2.08;;;;;;;;;;5054234;28;20393;-88
2022/05/16 00:51:20;;;;;;;2.13;1.70;;;;;;;;;;5053680;28;20385;-89
2022/05/16 00:53:47;;;;;;;2.15;1.80;;;;;;;;;;5041684;28;20776;-88
2022/05/16 00:56:14;;;;;;;1.90;1.70;;;;;;;;;;5034093;28;20509;-88
2022/05/16 00:58:41;;;;;;;2.05;1.60;;;;;;;;;;5033853;28;20383;-88
2022/05/16 01:04:47;;;;;;;2.75;1.67;;;;;;;;;;5033874;28;20903;-88
2022/05/16 01:06:40;;;;;;;3.28;2.13;;;;;;;;;;5033906;28;20971;-88
2022/05/16 01:09:07;;;;;;;2.30;2.10;;;;;;;;;;5033949;28;20997;-88
2022/05/16 01:11:34;;;;;;;2.08;1.88;;;;;;;;;;5032726;28;20387;-88
2022/05/16 01:14:00;;;;;;;3.40;2.10;;;;;;;;;;5033784;28;20407;-88
2022/05/16 01:16:27;;;;;;;2.10;2.00;;;;;;;;;;5034112;28;20457;-88
2022/05/16 01:18:53;;;;;;;2.13;1.93;;;;;;;;;;5033641;28;20430;-88
2022/05/16 01:21:26;;;;;;;2.53;2.17;;;;;;;;;;5033548;28;20433;-89
2022/05/16 01:23:54;;;;;;;2.97;2.20;;;;;;;;;;5033509;28;20421;-88
2022/05/16 01:26:24;;;;;;;2.58;2.30;;;;;;;;;;5033686;28;20391;-88
2022/05/16 01:28:51;;;;;;;4.18;2.60;;;;;;;;;;5033288;28;20430;-88
2022/05/16 01:31:17;;;;;;;3.30;2.47;;;;;;;;;;5033067;28;20395;-88
2022/05/16 01:33:43;;;;;;;2.67;2.22;;;;;;;;;;5033344;28;20875;-89
2022/05/16 01:36:09;;;;;;;2.93;2.20;;;;;;;;;;5033166;28;20379;-88
2022/05/16 01:38:35;;;;;;;2.25;2.05;;;;;;;;;;5035477;28;20789;-88
2022/05/16 01:41:03;;;;;;;2.80;2.13;;;;;;;;;;5055168;28;20381;-88
2022/05/16 01:43:31;;;;;;;2.58;2.00;;;;;;;;;;5053259;28;20373;-88
2022/05/16 01:45:57;;;;;;;3.17;2.20;;;;;;;;;;5053196;28;20423;-88
2022/05/16 01:48:24;;;;;;;2.20;2.00;;;;;;;;;;5053083;28;20429;-89
2022/05/16 01:50:51;;;;;;;2.22;2.00;;;;;;;;;;5052333;28;20850;-89
2022/05/16 01:53:18;;;;;;;2.03;1.83;;;;;;;;;;5053309;28;20524;-88
2022/05/16 01:55:44;;;;;;;2.35;2.00;;;;;;;;;;5052785;28;20743;-88
2022/05/16 01:58:10;;;;;;;2.40;1.95;;;;;;;;;;5052883;28;20378;-87
2022/05/16 02:00:37;;;;;;;2.08;1.83;;;;;;;;;;5052958;28;20776;-88
2022/05/16 02:03:05;;;;;;;2.15;1.95;;;;;;;;;;5052384;28;20419;-89
2022/05/16 02:05:31;;;;;;;2.45;1.70;;;;;;;;;;5034651;28;20745;-89
2022/05/16 02:07:57;;;;;;;2.83;2.10;;;;;;;;;;5032499;28;20471;-88
2022/05/16 02:10:24;;;;;;;2.55;1.98;;;;;;;;;;5032483;28;20431;-89
2022/05/16 02:12:51;;;;;;;2.03;1.88;;;;;;;;;;5032753;28;20380;-88
2022/05/16 02:15:19;;;;;;;2.88;2.10;;;;;;;;;;5032256;28;20871;-88
2022/05/16 02:17:45;;;;;;;2.13;1.92;;;;;;;;;;5032559;28;20391;-88
2022/05/16 02:20:11;;;;;;;2.60;1.95;;;;;;;;;;5032409;28;21092;-88
2022/05/16 02:25:22;;;;;;;2.75;2.10;;;;;;;;;;5032610;28;20394;-88
2022/05/16 02:27:49;;;;;;;2.80;2.20;;;;;;;;;;5032379;28;20391;-88
2022/05/16 02:30:15;;;;;;;2.42;2.08;;;;;;;;;;5032098;28;20404;-89
2022/05/16 02:32:42;;;;;;;2.47;2.27;;;;;;;;;;5032013;28;20528;-88
2022/05/16 02:35:08;;;;;;;2.63;2.35;;;;;;;;;;5032716;28;20924;-88
2022/05/16 02:37:34;;;;;;;2.45;2.08;;;;;;;;;;5032149;28;20745;-88
2022/05/16 02:40:00;;;;;;;3.38;2.03;;;;;;;;;;5031880;28;20390;-89
2022/05/16 02:42:26;;;;;;;3.10;2.25;;;;;;;;;;5032354;28;20478;-88
2022/05/16 02:44:52;;;;;;;2.40;1.93;;;;;;;;;;5032240;28;20402;-88
2022/05/16 02:47:19;;;;;;;2.53;2.20;;;;;;;;;;5050148;28;20463;-88
2022/05/16 02:49:45;;;;;;;2.72;2.00;;;;;;;;;;5051595;28;20886;-89
2022/05/16 02:52:12;;;;;;;2.20;1.93;;;;;;;;;;5052140;28;20419;-88
2022/05/16 02:54:38;;;;;;;2.45;2.22;;;;;;;;;;5052427;28;20941;-88
2022/05/16 02:57:05;;;;;;;2.50;2.30;;;;;;;;;;5051578;28;20515;-88
2022/05/16 02:59:32;;;;;;;2.50;2.20;;;;;;;;;;5051888;28;20381;-88
2022/05/16 03:02:03;;;;;;;2.63;2.42;;;;;;;;;;5052653;28;20459;-88
2022/05/16 03:04:29;;;;;;;2.87;2.20;;;;;;;;;;5052396;28;20912;-87
2022/05/16 03:06:55;;;;;;;2.60;2.40;;;;;;;;;;5051819;28;20708;-88
2022/05/16 03:09:21;;;;;;;3.20;2.72;;;;;;;;;;5052356;28;20409;-88
2022/05/16 03:11:48;;;;;;;2.58;2.25;;;;;;;;;;5052023;28;20380;-88
2022/05/16 03:14:14;;;;;;;2.78;2.40;;;;;;;;;;5051535;28;20384;-88
2022/05/16 03:16:40;;;;;;;3.27;2.27;;;;;;;;;;5051676;28;20396;-88
2022/05/16 03:19:06;;;;;;;3.25;2.33;;;;;;;;;;5051813;28;20381;-88
2022/05/16 03:21:33;;;;;;;3.20;2.60;;;;;;;;;;5052457;28;20439;-88
2022/05/16 03:23:59;;;;;;;2.50;2.30;;;;;;;;;;5051568;28;20879;-88
2022/05/16 03:26:25;;;;;;;2.65;2.45;;;;;;;;;;5051443;28;20385;-89
2022/05/16 03:28:52;;;;;;;3.25;2.58;;;;;;;;;;5051747;28;20845;-88
2022/05/16 03:31:18;;;;;;;3.90;2.60;;;;;;;;;;5051245;28;20409;-88
2022/05/16 03:33:44;;;;;;;3.35;3.03;;;;;;;;;;5051823;28;20379;-88
2022/05/16 03:36:10;;;;;;;3.10;2.57;;;;;;;;;;5055378;28;20384;-89
2022/05/16 03:41:21;;;;;;;3.72;2.72;;;;;;;;;;5046568;22;20441;-81
2022/05/16 03:43:48;;;;;;;3.28;2.58;;;;;;;;;;4945512;29;20389;-81
2022/05/16 03:46:14;;;;;;;3.65;3.10;;;;;;;;;;4956240;28;20940;-81
2022/05/16 03:48:40;;;;;;;2.70;2.50;;;;;;;;;;4954066;28;20518;-81
2022/05/16 03:51:07;;;;;;;3.25;2.92;;;;;;;;;;4958564;28;20389;-81
2022/05/16 03:53:36;;;;;;;4.28;2.95;;;;;;;;;;4973253;28;20398;-82
2022/05/16 03:56:02;;;;;;;3.13;2.80;;;;;;;;;;4973216;28;20384;-81
2022/05/16 03:58:28;;;;;;;3.50;3.20;;;;;;;;;;4973278;28;20874;-81
2022/05/16 04:00:54;;;;;;;4.93;3.45;;;;;;;;;;4970356;28;20399;-81
2022/05/16 04:03:20;;;;;;;4.27;3.23;;;;;;;;;;4953716;28;20436;-81
2022/05/16 04:05:46;;;;;;;5.30;3.58;;;;;;;;;;4953916;28;20394;-81
2022/05/16 04:08:12;;;;;;;3.65;3.17;;;;;;;;;;4953858;28;20417;-81
2022/05/16 04:10:38;;;;;;;4.75;3.90;;;;;;;;;;4953189;28;20421;-81
2022/05/16 04:13:04;;;;;;;5.47;3.83;;;;;;;;;;4953767;28;20412;-81
2022/05/16 04:15:31;;;;;;;4.10;3.58;;;;;;;;;;4953574;28;20382;-81
2022/05/16 04:17:57;;;;;;;3.73;3.33;;;;;;;;;;4953898;28;20461;-80
2022/05/16 04:20:23;;;;;;;4.20;3.00;;;;;;;;;;4953217;28;20382;-80
2022/05/16 04:22:49;;;;;;;4.43;3.00;;;;;;;;;;4953427;28;20391;-80
2022/05/16 04:25:17;;;;;;;3.33;3.03;;;;;;;;;;4953524;28;20397;-80
2022/05/16 04:27:43;;;;;;;3.10;2.85;;;;;;;;;;4953135;28;20397;-81
2022/05/16 04:30:09;;;;;;;3.17;2.95;;;;;;;;;;4952265;29;20426;-80
2022/05/16 04:32:35;;;;;;;3.42;3.10;;;;;;;;;;4953322;28;20459;-80
2022/05/16 04:35:02;;;;;;;4.35;3.03;;;;;;;;;;4953339;28;20390;-81
2022/05/16 04:37:32;;;;;;;3.30;3.00;;;;;;;;;;4955256;28;20413;-80
2022/05/16 04:39:58;;;;;;;4.22;3.08;;;;;;;;;;4974682;28;20758;-82
2022/05/16 04:42:40;;;;;;;3.33;3.00;;;;;;;;;;4971664;28;20401;-80
2022/05/16 04:45:06;;;;;;;3.58;3.17;;;;;;;;;;4954341;28;20539;-80
2022/05/16 04:47:32;;;;;;;3.47;3.17;;;;;;;;;;4952780;28;20948;-80
2022/05/16 04:49:58;;;;;;;3.53;3.17;;;;;;;;;;4953389;28;20436;-80
2022/05/16 04:52:24;;;;;;;3.40;3.10;;;;;;;;;;4952841;29;20747;-80
2022/05/16 04:54:51;;;;;;;3.50;3.20;;;;;;;;;;4953420;28;20387;-80
2022/05/16 04:57:18;;;;;;;4.90;3.63;;;;;;;;;;4952650;29;20393;-80
2022/05/16 04:59:47;;;;;;;3.83;3.22;;;;;;;;;;4953203;28;20803;-80
2022/05/16 05:02:13;;;;;;;3.22;3.03;;;;;;;;;;4952830;28;20414;-81
2022/05/16 05:04:39;;;;;;;3.63;3.13;;;;;;;;;;4952750;28;20409;-80
2022/05/16 05:07:05;;;;;;;3.65;3.10;;;;;;;;;;4952707;28;20473;-80
2022/05/16 05:09:31;;;;;;;3.33;3.03;;;;;;;;;;4953070;28;20887;-80
2022/05/16 05:14:42;;;;;;;3.80;3.30;;;;;;;;;;4954104;29;20418;-79
2022/05/16 05:17:10;;;;;;;3.57;3.20;;;;;;;;;;4952684;28;20386;-80
2022/05/16 05:19:39;;;;;;;4.80;3.53;;;;;;;;;;4952800;28;20391;-80
2022/05/16 05:22:06;;;;;;;3.92;3.55;;;;;;;;;;4951242;28;20433;-80
2022/05/16 05:24:32;;;;;;;4.22;3.67;;;;;;;;;;4952886;28;20401;-80
2022/05/16 05:26:58;;;;;;;4.38;4.00;;;;;;;;;;4952255;28;20895;-80
2022/05/16 05:29:24;;;;;;;4.82;4.13;;;;;;;;;;4952442;28;20413;-80
2022/05/16 05:31:50;;;;;;;4.73;4.40;;;;;;;;;;4952596;28;20837;-80
2022/05/16 05:34:17;;;;;;;4.47;3.80;;;;;;;;;;4952059;28;20476;-80
2022/05/16 05:36:43;;;;;;;3.85;3.45;;;;;;;;;;4952691;28;20747;-80
2022/05/16 05:39:13;;;;;;;4.20;3.80;;;;;;;;;;4952214;28;20394;-80
2022/05/16 05:41:39;;;;;;;5.90;4.10;;;;;;;;;;4952112;28;20413;-80
2022/05/16 05:44:05;;;;;;;4.60;4.18;;;;;;;;;;4951931;29;20451;-80
2022/05/16 05:46:39;;;;;;;4.27;3.90;;;;;;;;;;4952337;28;20498;-80
2022/05/16 05:49:05;;;;;;;5.35;4.40;;;;;;;;;;4951920;29;20414;-80
2022/05/16 05:51:31;;;;;;;4.88;4.35;;;;;;;;;;4951782;28;20390;-80
2022/05/16 05:53:57;;;;;;;4.25;3.78;;;;;;;;;;4973580;28;20380;-80
2022/05/16 05:56:24;;;;;;;4.47;3.90;;;;;;;;;;4971227;28;20883;-80
2022/05/16 05:58:50;;;;;;;4.82;3.95;;;;;;;;;;4960850;28;20390;-80
2022/05/16 06:01:16;;;;;;;4.00;3.70;;;;;;;;;;4951748;28;20390;-80
2022/05/16 06:03:42;;;;;;;4.40;4.00;;;;;;;;;;4952529;28;20390;-80
2022/05/16 06:06:08;;;;;;;3.85;3.30;;;;;;;;;;4952092;29;20444;-80
2022/05/16 06:08:34;;;;;;;3.97;3.60;;;;;;;;;;4951359;28;20402;-80
2022/05/16 06:11:00;;;;;;;4.30;3.90;;;;;;;;;;4951871;28;20397;-80
2022/05/16 06:13:28;;;;;;;4.00;3.70;;;;;;;;;;4951909;28;20386;-80
2022/05/16 06:15:54;;;;;;;6.05;4.13;;;;;;;;;;4951710;28;20743;-80
2022/05/16 06:18:20;;;;;;;4.35;3.95;;;;;;;;;;4950745;29;20386;-80
2022/05/16 06:20:46;;;;;;;4.50;3.60;;;;;;;;;;4950160;28;20394;-80
2022/05/16 06:23:12;;;;;;;4.20;3.80;;;;;;;;;;4951685;28;20414;-80
2022/05/16 06:25:44;;;;;;;5.47;3.40;;;;;;;;;;4951648;28;20471;-80
2022/05/16 06:28:12;;;;;;;5.20;3.30;;;;;;;;;;4949961;29;20390;-80
2022/05/16 06:30:39;;;;;;;6.30;3.47;;;;;;;;;;4951587;28;20414;-80
2022/05/16 06:33:05;;;;;;;3.38;3.08;;;;;;;;;;4963511;28;20412;-80
2022/05/16 06:35:32;;;;;;;5.75;4.00;;;;;;;;;;4969547;28;20913;-79
2022/05/16 06:38:04;;;;;;;4.50;4.10;;;;;;;;;;4970778;28;20746;-80
2022/05/16 06:40:30;;;;;;;7.45;4.60;;;;;;;;;;4969303;28;20424;-80
2022/05/16 06:42:56;;;;;;;4.90;4.38;;;;;;;;;;4970384;28;20401;-80
2022/05/16 06:45:22;;;;;;;4.60;4.20;;;;;;;;;;4969048;28;20397;-80
2022/05/16 06:47:48;;;;;;;5.72;3.90;;;;;;;;;;4970716;28;20392;-80
2022/05/16 06:50:14;;;;;;;4.78;3.70;;;;;;;;;;4970653;28;20439;-80
2022/05/16 06:52:40;;;;;;;3.80;3.20;;;;;;;;;;4965735;28;20967;-80
2022/05/16 06:55:06;;;;;;;5.90;4.30;;;;;;;;;;4951423;28;20382;-80
2022/05/16 06:57:33;;;;;;;5.53;3.67;;;;;;;;;;4950780;28;20386;-80
2022/05/16 06:59:59;;;;;;;3.83;3.35;;;;;;;;;;4951370;28;20401;-80
2022/05/16 07:02:25;;;;;;;4.60;3.40;;;;;;;;;;4951144;28;20437;-80
2022/05/16 07:04:52;;;;;;;4.03;3.63;;;;;;;;;;4950879;28;20789;-80
2022/05/16 07:07:18;;;;;;;4.00;3.50;;;;;;;;;;4951195;28;20477;-80
2022/05/16 07:09:44;;;;;;;3.63;2.57;;;;;;;;;;4952523;28;20499;-80
2022/05/16 07:12:10;;;;;;;2.60;2.40;;;;;;;;;;4954612;28;20433;-80
2022/05/16 07:14:38;;;;;;;4.55;3.50;;;;;;;;;;4954237;28;20448;-80
2022/05/16 07:17:04;;;;;;;3.58;2.60;;;;;;;;;;4954985;28;20393;-82
2022/05/16 07:19:31;;;;;;;3.00;2.70;;;;;;;;;;4954630;28;20945;-81
2022/05/16 07:21:58;;;;;;;5.70;3.40;;;;;;;;;;4953955;29;20473;-80
2022/05/16 07:24:24;;;;;;;3.33;2.55;;;;;;;;;;4954590;28;20788;-80
2022/05/16 07:29:34;;;;;;;6.50;2.70;;;;;;;;;;4954369;29;20416;-80
2022/05/16 07:32:00;;;;;;;6.25;3.58;;;;;;;;;;4954102;28;20472;-79
2022/05/16 07:34:26;;;;;;;3.88;3.05;;;;;;;;;;4953885;28;20378;-80
2022/05/16 07:36:52;;;;;;;4.05;2.67;;;;;;;;;;4954311;28;20382;-80
2022/05/16 07:39:18;;;;;;;3.53;2.63;;;;;;;;;;4954158;29;20394;-80
2022/05/16 07:41:45;;;;;;;2.93;2.40;;;;;;;;;;4953826;28;20406;-80
2022/05/16 07:44:11;;;;;;;4.10;2.10;;;;;;;;;;4954028;28;20866;-81
2022/05/16 07:46:37;;;;;;;4.05;2.40;;;;;;;;;;4954738;28;20421;-81
2022/05/16 07:49:03;;;;;;;3.45;2.42;;;;;;;;;;4953877;28;20493;-80
2022/05/16 07:51:29;;;;;;;2.80;2.30;;;;;;;;;;4962274;28;20790;-80
2022/05/16 07:53:55;;;;;;;3.25;2.20;;;;;;;;;;4972729;28;20479;-80
2022/05/16 07:56:21;;;;;;;3.90;2.50;;;;;;;;;;4973336;28;20392;-80
2022/05/16 07:58:47;;;;;;;2.90;2.13;;;;;;;;;;4973139;28;20410;-81
2022/05/16 08:01:14;;;;;;;6.20;3.33;;;;;;;;;;4972941;28;20942;-81
2022/05/16 08:03:40;;;;;;;5.18;2.33;;;;;;;;;;4971534;28;20404;-81
2022/05/16 08:06:06;;;;;;;3.50;2.30;;;;;;;;;;4972936;28;20480;-81
2022/05/16 08:11:16;;;;;;;2.72;2.30;;;;;;;;;;4973247;28;20433;-81
2022/05/16 08:13:43;;;;;;;2.70;2.47;;;;;;;;;;4972897;28;20388;-81
2022/05/16 08:16:09;;;;;;;2.80;2.50;;;;;;;;;;4973009;28;20466;-81
2022/05/16 08:18:35;;;;;;;5.07;2.80;;;;;;;;;;4972368;28;20385;-81
2022/05/16 08:21:01;;;;;;;7.43;5.33;;;;;;;;;;4971264;28;20842;-81
2022/05/16 08:23:28;;;;;;;3.27;2.67;;;;;;;;;;4972734;28;20389;-81
2022/05/16 08:25:55;;;;;;;4.25;3.08;;;;;;;;;;4972448;28;20446;-81
2022/05/16 08:28:22;;;;;;;3.60;3.17;;;;;;;;;;4973102;28;20385;-81
2022/05/16 08:30:48;;;;;;;5.82;3.58;;;;;;;;;;4974548;28;20419;-81
2022/05/16 08:33:14;;;;;;;4.32;3.20;;;;;;;;;;4972763;28;20876;-81
2022/05/16 08:35:40;;;;;;;5.80;3.00;;;;;;;;;;4971362;28;20392;-81
2022/05/16 08:41:03;;;;;;;3.03;2.70;;;;;;;;;;4970320;28;20436;-81
2022/05/16 08:43:50;;;;;;;3.10;2.80;;;;;;;;;;4970528;28;20384;-81
2022/05/16 08:46:34;;;;;;;5.18;3.00;;;;;;;;;;4952797;28;20394;-81
2022/05/16 08:49:23;;;;;;;3.42;2.83;;;;;;;;;;4953420;29;20450;-81
2022/05/16 08:51:55;;;;;;;4.15;2.92;;;;;;;;;;4953010;29;20848;-81
2022/05/16 08:54:30;;;;;;;4.53;2.97;;;;;;;;;;4953216;28;20520;-81
2022/05/16 08:56:59;;;;;;;6.20;3.17;;;;;;;;;;4952700;28;20505;-81
2022/05/16 08:59:30;;;;;;;3.92;3.08;;;;;;;;;;4953179;28;20390;-81
2022/05/16 09:01:59;;;;;;;3.95;2.85;;;;;;;;;;4952690;28;20394;-81
2022/05/16 09:04:44;;;;;;;3.20;2.90;;;;;;;;;;4952898;28;20390;-81
2022/05/16 09:07:23;;;;;;;4.30;2.88;;;;;;;;;;4952977;28;20398;-81
2022/05/16 09:09:53;;;;;;;3.30;3.00;;;;;;;;;;4952776;29;20493;-81
2022/05/16 09:12:30;;;;;;;4.80;2.90;;;;;;;;;;4952714;28;20579;-82
2022/05/16 09:15:02;;;;;;;4.90;3.33;;;;;;;;;;4952524;28;20393;-82
2022/05/16 09:17:31;;;;;;;18.35;3.40;;;;;;;;;;4952960;28;20390;-82
2022/05/16 09:20:07;;;;;;;6.63;2.60;;;;;;;;;;4952265;28;20755;-82
2022/05/16 09:22:42;;;;;;;4.47;2.60;;;;;;;;;;4952916;28;20848;-82
2022/05/16 09:25:12;;;;;;;4.77;2.80;;;;;;;;;;4952623;29;20481;-82
2022/05/16 09:30:24;;;;;;;4.78;2.97;;;;;;;;;;4954247;29;20421;-82
2022/05/16 09:32:55;;;;;;;5.05;3.22;;;;;;;;;;4951492;28;20394;-82
2022/05/16 09:35:24;;;;;;;11.98;3.65;;;;;;;;;;4952819;28;20378;-82
2022/05/16 09:37:51;;;;;;;8.88;3.70;;;;;;;;;;4952415;28;20382;-82
2022/05/16 09:40:21;;;;;;;5.60;3.53;;;;;;;;;;4951294;29;20410;-82
2022/05/16 09:42:47;;;;;;;7.25;3.22;;;;;;;;;;4962255;28;20758;-82
2022/05/16 09:45:20;;;;;;;5.47;3.40;;;;;;;;;;4972175;28;20389;-82
2022/05/16 09:47:46;;;;;;;9.15;3.60;;;;;;;;;;4961440;28;20393;-81
2022/05/16 09:50:24;;;;;;;9.10;3.15;;;;;;;;;;4951822;28;20418;-80
2022/05/16 09:53:09;;;;;;;15.25;3.17;;;;;;;;;;4952112;28;20469;-81
2022/05/16 09:55:54;;;;;;;13.23;3.95;;;;;;;;;;5057486;23;20433;-81
2022/05/16 09:58:21;;;;;;;6.45;3.40;;;;;;;;;;5032734;28;20387;-81
2022/05/16 10:01:01;;;;;;;8.95;3.50;;;;;;;;;;5033027;28;20383;-81
2022/05/16 10:03:33;;;;;;;6.28;3.13;;;;;;;;;;5032866;28;20423;-81
2022/05/16 10:06:00;;;;;;;3.85;2.90;;;;;;;;;;5032448;28;20457;-81
2022/05/16 10:08:29;;;;;;;7.35;3.10;;;;;;;;;;5032785;28;20405;-81
2022/05/16 10:10:56;;;;;;;6.90;3.10;;;;;;;;;;5033032;28;20393;-82
2022/05/16 10:13:23;;;;;;;5.53;3.23;;;;;;;;;;5032796;28;20425;-82
2022/05/16 10:15:50;;;;;;;5.75;2.95;;;;;;;;;;5032356;28;20454;-81
2022/05/16 10:18:18;;;;;;;5.28;2.90;;;;;;;;;;5032691;28;20384;-81
2022/05/16 10:20:46;;;;;;;4.95;3.08;;;;;;;;;;5032626;28;20449;-81
2022/05/16 10:23:22;;;;;;;7.25;3.30;;;;;;;;;;5032283;28;20379;-81
2022/05/16 10:25:50;;;;;;;3.95;2.90;;;;;;;;;;5049691;28;20370;-82
2022/05/16 10:28:19;;;;;;;4.65;2.97;;;;;;;;;;5052338;28;20464;-82
2022/05/16 10:33:32;;;;;;;6.40;3.07;;;;;;;;;;5052445;28;20739;-82
2022/05/16 10:36:00;;;;;;;6.18;2.90;;;;;;;;;;5052370;28;20381;-82
2022/05/16 10:38:34;;;;;;;6.18;3.13;;;;;;;;;;5050482;28;20378;-82
2022/05/16 10:41:02;;;;;;;6.95;3.15;;;;;;;;;;5032495;28;20414;-82
2022/05/16 10:43:43;;;;;;;4.93;3.05;;;;;;;;;;5013893;28;20872;-82
2022/05/16 10:46:11;;;;;;;5.43;2.83;;;;;;;;;;5032311;28;20925;-83
2022/05/16 10:48:44;;;;;;;5.18;2.97;;;;;;;;;;5032118;28;20387;-83
2022/05/16 10:51:31;;;;;;;5.80;3.13;;;;;;;;;;5031712;28;20926;-83
2022/05/16 10:54:03;;;;;;;5.28;2.65;;;;;;;;;;5032024;28;20418;-82
2022/05/16 10:56:41;;;;;;;6.18;3.20;;;;;;;;;;5032318;28;20381;-82
2022/05/16 10:59:19;;;;;;;3.40;2.80;;;;;;;;;;5032080;28;20389;-82
2022/05/16 11:01:59;;;;;;;6.57;3.17;;;;;;;;;;5031649;28;20882;-81
2022/05/16 11:04:38;;;;;;;9.10;3.30;;;;;;;;;;5032114;28;20371;-81
2022/05/16 11:07:15;;;;;;;10.85;3.10;;;;;;;;;;5031612;28;20382;-82
2022/05/16 11:09:41;;;;;;;8.68;3.10;;;;;;;;;;5032028;28;20434;-81
2022/05/16 11:12:14;;;;;;;5.43;3.25;;;;;;;;;;5032338;28;20888;-81
2022/05/16 11:14:46;;;;;;;6.10;3.70;;;;;;;;;;5032183;28;20375;-81
2022/05/16 11:17:27;;;;;;;6.28;3.03;;;;;;;;;;5032314;28;20788;-81
2022/05/16 11:19:56;;;;;;;6.38;3.20;;;;;;;;;;5031951;28;20387;-81
2022/05/16 11:22:32;;;;;;;4.40;3.25;;;;;;;;;;5031913;28;20429;-81
2022/05/16 11:25:04;;;;;;;7.18;3.38;;;;;;;;;;5032153;28;20458;-81
2022/05/16 11:27:49;;;;;;;8.43;3.50;;;;;;;;;;5032000;28;20391;-81
2022/05/16 11:30:30;;;;;;;8.15;3.60;;;;;;;;;;5031982;28;20411;-81
2022/05/16 11:33:15;;;;;;;5.43;3.25;;;;;;;;;;5032097;28;20415;-82
2022/05/16 11:35:45;;;;;;;4.68;3.58;;;;;;;;;;5031865;28;20431;-81
2022/05/16 11:38:33;;;;;;;4.23;3.30;;;;;;;;;;5032047;28;20737;-81
2022/05/16 11:41:11;;;;;;;5.00;2.95;;;;;;;;;;5031495;28;20371;-81
2022/05/16 11:43:44;;;;;;;6.57;3.10;;;;;;;;;;5043122;28;20876;-81
2022/05/16 11:46:20;;;;;;;6.55;3.00;;;;;;;;;;5051435;28;20465;-81
2022/05/16 11:48:49;;;;;;;3.53;2.58;;;;;;;;;;5033763;28;20440;-81
2022/05/16 11:51:33;;;;;;;4.97;2.70;;;;;;;;;;5051862;28;20739;-82
2022/05/16 11:54:01;;;;;;;6.68;3.30;;;;;;;;;;5051197;28;20386;-81
2022/05/16 12:02:27;;;;;;;4.63;2.78;;;;;;;;;;5035329;28;20421;-81
2022/05/16 12:04:54;;;;;;;3.85;2.75;;;;;;;;;;5033441;28;20393;-81
2022/05/16 12:07:40;;;;;;;8.32;3.05;;;;;;;;;;5035017;28;20394;-81
2022/05/16 12:10:15;;;;;;;5.80;2.80;;;;;;;;;;5035332;28;20439;-81
2022/05/16 12:12:46;;;;;;;6.70;2.75;;;;;;;;;;5035182;28;20870;-82
2022/05/16 12:15:20;;;;;;;4.68;2.50;;;;;;;;;;5034863;28;20422;-81
2022/05/16 12:17:52;;;;;;;6.07;2.90;;;;;;;;;;5034583;28;20406;-81
2022/05/16 12:20:34;;;;;;;7.10;2.90;;;;;;;;;;5035186;28;20387;-81
2022/05/16 12:23:00;;;;;;;13.57;3.88;;;;;;;;;;5034825;28;20380;-81
2022/05/16 12:25:26;;;;;;;6.35;3.20;;;;;;;;;;5034522;28;20388;-82
2022/05/16 12:28:11;;;;;;;4.40;2.75;;;;;;;;;;5034760;28;20462;-81
2022/05/16 12:30:52;;;;;;;6.13;2.67;;;;;;;;;;5034875;28;20407;-80
2022/05/16 12:33:30;;;;;;;6.03;2.90;;;;;;;;;;5034479;28;20398;-81
2022/05/16 12:35:56;;;;;;;4.07;2.65;;;;;;;;;;5066805;28;20399;-81
2022/05/16 12:38:23;;;;;;;5.03;2.83;;;;;;;;;;5074794;28;20829;-81
2022/05/16 12:40:55;;;;;;;5.63;2.33;;;;;;;;;;5074082;28;20383;-81
2022/05/16 12:43:34;;;;;;;5.35;2.53;;;;;;;;;;5074212;28;20509;-81
2022/05/16 12:46:19;;;;;;;5.60;2.70;;;;;;;;;;5074509;28;20371;-81
2022/05/16 12:49:06;;;;;;;4.00;2.60;;;;;;;;;;5074232;28;20372;-81
2022/05/16 12:51:45;;;;;;;6.37;2.60;;;;;;;;;;5074190;28;20387;-81
2022/05/16 12:54:24;;;;;;;6.30;2.65;;;;;;;;;;5055708;28;20400;-81
2022/05/16 12:56:57;;;;;;;5.90;2.92;;;;;;;;;;5073633;28;20391;-81
2022/05/16 12:59:41;;;;;;;6.35;2.58;;;;;;;;;;5074085;28;20480;-80
2022/05/16 13:02:15;;;;;;;4.57;2.70;;;;;;;;;;5073944;28;20390;-80
2022/05/16 13:04:54;;;;;;;5.45;2.70;;;;;;;;;;5073827;28;20462;-81
2022/05/16 13:07:25;;;;;;;5.60;2.30;;;;;;;;;;5073558;28;20717;-81
2022/05/16 13:10:09;;;;;;;8.63;2.58;;;;;;;;;;5074206;28;20791;-81
2022/05/16 13:12:42;;;;;;;8.15;2.47;;;;;;;;;;5073525;28;20389;-81
2022/05/16 13:15:08;;;;;;;11.48;2.50;;;;;;;;;;5073547;28;20912;-81
2022/05/16 13:17:50;;;;;;;5.30;2.30;;;;;;;;;;5073731;28;20376;-81
2022/05/16 13:20:18;;;;;;;8.65;2.45;;;;;;;;;;5073708;28;20463;-81
2022/05/16 13:22:48;;;;;;;3.53;2.40;;;;;;;;;;5073676;28;20391;-81
2022/05/16 13:25:14;;;;;;;3.75;2.10;;;;;;;;;;5073488;28;20921;-81
2022/05/16 13:30:26;;;;;;;4.55;2.25;;;;;;;;;;5073427;28;20448;-81
2022/05/16 13:32:53;;;;;;;6.78;2.30;;;;;;;;;;5073343;28;20383;-81
2022/05/16 13:35:27;;;;;;;4.45;2.40;;;;;;;;;;5073392;28;20875;-81
2022/05/16 13:37:53;;;;;;;5.50;2.63;;;;;;;;;;5073627;28;20782;-81
2022/05/16 13:40:25;;;;;;;7.20;2.70;;;;;;;;;;5072347;28;20470;-81
2022/05/16 13:42:54;;;;;;;4.25;2.05;;;;;;;;;;5070797;28;20388;-81
2022/05/16 13:45:24;;;;;;;11.10;2.75;;;;;;;;;;5073109;28;20383;-81
2022/05/16 13:47:51;;;;;;;21.35;3.25;;;;;;;;;;5072762;28;20375;-81
2022/05/16 13:50:21;;;;;;;10.60;2.50;;;;;;;;;;5041899;28;20407;-81
2022/05/16 13:52:48;;;;;;;6.25;2.33;;;;;;;;;;5033145;28;20379;-81
2022/05/16 13:55:20;;;;;;;9.38;2.20;;;;;;;;;;5015197;28;20820;-81
2022/05/16 13:57:46;;;;;;;5.03;2.00;;;;;;;;;;5033227;28;20706;-81
2022/05/16 14:00:15;;;;;;;4.47;2.45;;;;;;;;;;5033152;28;20482;-82
2022/05/16 14:02:42;;;;;;;3.75;2.10;;;;;;;;;;5033348;28;20852;-81
2022/05/16 14:05:10;;;;;;;4.15;1.90;;;;;;;;;;5032509;28;20395;-81
2022/05/16 14:07:37;;;;;;;4.53;2.22;;;;;;;;;;5032393;28;20860;-81
2022/05/16 14:10:02;;;;;;;4.18;2.10;;;;;;;;;;5032641;28;20403;-82
2022/05/16 14:12:32;;;;;;;5.23;1.90;;;;;;;;;;5032843;28;20420;-81
2022/05/16 14:14:59;;;;;;;4.78;1.90;;;;;;;;;;5032880;28;20433;-81
2022/05/16 14:17:34;;;;;;;8.18;2.30;;;;;;;;;;5032695;28;20383;-81
2022/05/16 14:20:01;;;;;;;4.43;1.83;;;;;;;;;;5032597;28;20379;-81
2022/05/16 14:22:27;;;;;;;8.38;2.10;;;;;;;;;;5032642;28;20382;-81
2022/05/16 14:25:00;;;;;;;4.43;2.13;;;;;;;;;;5032354;28;20386;-81
2022/05/16 14:27:34;;;;;;;7.20;2.45;;;;;;;;;;5032045;28;20449;-81
2022/05/16 14:30:01;;;;;;;4.47;2.08;;;;;;;;;;5032426;28;20414;-81
2022/05/16 14:32:27;;;;;;;4.30;2.00;;;;;;;;;;5035024;28;20372;-82
2022/05/16 14:35:03;;;;;;;8.45;2.10;;;;;;;;;;5032418;28;20801;-81
2022/05/16 14:37:30;;;;;;;4.60;2.20;;;;;;;;;;5033044;28;20375;-82
2022/05/16 14:40:02;;;;;;;4.20;2.33;;;;;;;;;;5050908;28;20370;-82
2022/05/16 14:42:33;;;;;;;5.35;2.35;;;;;;;;;;5051948;28;20400;-82
2022/05/16 14:45:05;;;;;;;4.32;2.20;;;;;;;;;;5033844;28;20807;-81
2022/05/16 14:47:41;;;;;;;6.23;2.20;;;;;;;;;;5052399;28;20826;-82
2022/05/16 14:50:07;;;;;;;3.63;2.20;;;;;;;;;;5052335;28;20423;-82
2022/05/16 14:52:33;;;;;;;9.65;2.50;;;;;;;;;;5052250;28;20383;-82
2022/05/16 14:55:02;;;;;;;4.28;2.25;;;;;;;;;;5052030;28;20393;-81
2022/05/16 14:57:28;;;;;;;4.30;2.17;;;;;;;;;;5052058;28;20382;-82
2022/05/16 14:59:54;;;;;;;3.67;2.28;;;;;;;;;;5051681;28;20388;-81
2022/05/16 15:05:06;;;;;;;3.92;2.03;;;;;;;;;;5051864;28;20376;-81
2022/05/16 15:07:35;;;;;;;5.00;2.30;;;;;;;;;;5052225;28;20731;-80
2022/05/16 15:10:01;;;;;;;3.83;2.10;;;;;;;;;;5052914;28;20409;-80
2022/05/16 15:12:27;;;;;;;4.53;2.42;;;;;;;;;;5052375;28;20382;-81
2022/05/16 15:14:53;;;;;;;4.40;2.00;;;;;;;;;;5052131;28;20378;-80
2022/05/16 15:17:19;;;;;;;4.57;2.38;;;;;;;;;;5051566;28;20373;-80
2022/05/16 15:19:45;;;;;;;4.88;2.35;;;;;;;;;;5051971;28;20855;-80
2022/05/16 15:22:12;;;;;;;4.50;2.60;;;;;;;;;;5051394;28;20438;-80
2022/05/16 15:24:51;;;;;;;6.65;2.58;;;;;;;;;;5052037;28;20385;-80
2022/05/16 15:27:17;;;;;;;3.83;2.30;;;;;;;;;;5051969;28;20377;-80
2022/05/16 15:29:44;;;;;;;4.75;2.20;;;;;;;;;;5052049;28;20890;-82
2022/05/16 15:32:11;;;;;;;3.67;2.08;;;;;;;;;;5055628;28;20450;-80